createdAt,value
2023-05-19T00:01:18.736Z,100731.69
2023-05-19T00:04:04.643Z,100731.55
2023-05-19T00:06:32.406Z,100727.78
2023-05-19T00:09:01.705Z,100731.53
2023-05-19T00:11:28.922Z,100732.60
2023-05-19T00:13:57.952Z,100740.30
2023-05-19T00:16:26.121Z,100739.34
2023-05-19T00:18:53.620Z,100728.75
2023-05-19T00:21:20.459Z,100739.63
2023-05-19T00:23:46.953Z,100738.19
2023-05-19T00:26:13.584Z,100738.04
2023-05-19T00:28:42.407Z,100735.95
2023-05-19T00:31:09.014Z,100745.08
2023-05-19T00:33:35.895Z,100745.59
2023-05-19T00:36:03.613Z,100744.82
2023-05-19T00:38:31.940Z,100746.11
2023-05-19T00:41:00.814Z,100747.30
2023-05-19T00:43:29.420Z,100751.74
2023-05-19T00:45:56.809Z,100754.59
2023-05-19T00:48:25.367Z,100755.09
2023-05-19T00:50:54.330Z,100757.19
2023-05-19T00:53:23.873Z,100761.70
2023-05-19T00:55:50.536Z,100765.11
2023-05-19T00:58:18.410Z,100761.55
2023-05-19T01:00:45.162Z,100762.73
2023-05-19T01:03:11.974Z,100764.59
2023-05-19T01:05:44.103Z,100763.67
2023-05-19T01:08:10.959Z,100765.13
2023-05-19T01:10:37.792Z,100770.62
2023-05-19T01:13:05.887Z,100772.49
2023-05-19T01:15:55.787Z,100777.59
2023-05-19T01:18:48.563Z,100780.67
2023-05-19T01:22:00.416Z,100781.59
2023-05-19T01:24:32.888Z,100787.11
2023-05-19T01:27:41.504Z,100788.03
2023-05-19T01:30:22.636Z,100792.50
2023-05-19T01:32:52.689Z,100791.89
2023-05-19T01:35:23.991Z,100790.48
2023-05-19T01:37:57.589Z,100795.13
2023-05-19T01:40:25.788Z,100795.27
2023-05-19T01:42:57.312Z,100796.86
2023-05-19T01:45:29.186Z,100796.19
2023-05-19T01:47:58.638Z,100796.13
2023-05-19T01:50:25.664Z,100800.65
2023-05-19T01:52:53.085Z,100799.27
2023-05-19T01:55:22.235Z,100802.39
2023-05-19T01:58:06.224Z,100793.59
2023-05-19T02:00:53.416Z,100792.81
2023-05-19T02:03:42.740Z,100791.69
2023-05-19T02:06:15.395Z,100801.33
2023-05-19T02:08:50.687Z,100802.66
2023-05-19T02:11:27.994Z,100807.85
2023-05-19T02:13:59.898Z,100800.95
2023-05-19T02:16:28.525Z,100795.38
2023-05-19T02:18:55.745Z,100796.30
2023-05-19T02:21:22.332Z,100801.09
2023-05-19T02:23:50.273Z,100803.02
2023-05-19T02:26:19.673Z,100803.83
2023-05-19T02:28:46.309Z,100804.80
2023-05-19T02:31:12.807Z,100807.08
2023-05-19T02:33:39.401Z,100809.41
2023-05-19T02:36:06.264Z,100811.42
2023-05-19T02:38:32.962Z,100810.27
2023-05-19T02:41:00.025Z,100813.89
2023-05-19T02:43:26.636Z,100815.08
2023-05-19T02:45:53.270Z,100815.59
2023-05-19T02:48:20.128Z,100818.45
2023-05-19T02:50:46.816Z,100812.94
2023-05-19T02:53:13.369Z,100801.40
2023-05-19T02:55:40.015Z,100828.56
2023-05-19T02:58:06.813Z,100828.04
2023-05-19T03:00:34.054Z,100832.21
2023-05-19T03:03:02.060Z,100836.73
2023-05-19T03:05:29.760Z,100837.20
2023-05-19T03:07:56.482Z,100832.53
2023-05-19T03:10:23.038Z,100844.66
2023-05-19T03:12:50.324Z,100841.69
2023-05-19T03:15:18.129Z,100843.33
2023-05-19T03:17:44.920Z,100849.91
2023-05-19T03:20:12.376Z,100845.75
2023-05-19T03:22:39.204Z,100845.77
2023-05-19T03:25:06.072Z,100843.41
2023-05-19T03:27:32.836Z,100844.84
2023-05-19T03:29:59.425Z,100844.73
2023-05-19T03:32:26.503Z,100844.48
2023-05-19T03:34:53.155Z,100842.77
2023-05-19T03:37:19.740Z,100841.60
2023-05-19T03:39:46.317Z,100844.92
2023-05-19T03:42:13.754Z,100846.60
2023-05-19T03:44:40.544Z,100842.19
2023-05-19T03:47:07.346Z,100842.96
2023-05-19T03:50:01.753Z,100844.48
2023-05-19T03:52:47.502Z,100851.33
2023-05-19T03:55:29.175Z,100852.44
2023-05-19T03:57:56.478Z,100852.96
2023-05-19T04:00:23.336Z,100855.71
2023-05-19T04:02:51.108Z,100857.43
2023-05-19T04:05:17.900Z,100856.67
2023-05-19T04:07:46.040Z,100860.15
2023-05-19T04:10:13.029Z,100856.77
2023-05-19T04:12:40.033Z,100853.40
2023-05-19T04:15:07.330Z,100853.24
2023-05-19T04:17:34.423Z,100854.00
2023-05-19T04:20:01.023Z,100852.45
2023-05-19T04:22:28.615Z,100857.10
2023-05-19T04:24:55.579Z,100862.13
2023-05-19T04:27:22.427Z,100869.52
2023-05-19T04:29:49.712Z,100874.63
2023-05-19T04:32:18.872Z,100869.14
2023-05-19T04:34:45.722Z,100873.55
2023-05-19T04:37:19.602Z,100881.13
2023-05-19T04:39:46.309Z,100885.70
2023-05-19T04:42:13.191Z,100888.81
2023-05-19T04:44:40.242Z,100888.14
2023-05-19T04:47:08.115Z,100891.65
2023-05-19T04:49:38.491Z,100891.23
2023-05-19T04:52:12.518Z,100890.57
2023-05-19T04:54:41.214Z,100891.70
2023-05-19T04:57:09.812Z,100887.02
2023-05-19T04:59:37.823Z,100883.39
2023-05-19T05:02:06.442Z,100883.80
2023-05-19T05:04:35.517Z,100893.30
2023-05-19T05:07:02.373Z,100891.98
2023-05-19T05:11:18.901Z,100896.19
2023-05-19T05:13:47.265Z,100897.83
2023-05-19T05:16:15.341Z,100886.67
2023-05-19T05:18:44.640Z,100885.77
2023-05-19T05:21:12.520Z,100901.63
2023-05-19T05:23:40.647Z,100908.30
2023-05-19T05:28:15.658Z,100909.70
2023-05-19T05:30:43.806Z,100913.77
2023-05-19T05:33:12.056Z,100916.58
2023-05-19T05:35:39.635Z,100918.96
2023-05-19T05:38:07.096Z,100922.89
2023-05-19T05:40:34.353Z,100922.27
2023-05-19T05:43:01.505Z,100926.64
2023-05-19T05:45:30.423Z,100927.31
2023-05-19T05:47:58.518Z,100931.36
2023-05-19T05:50:25.945Z,100933.89
2023-05-19T05:52:53.955Z,100934.59
2023-05-19T05:55:21.675Z,100937.89
2023-05-19T05:57:50.803Z,100941.39
2023-05-19T06:00:18.703Z,100944.03
2023-05-19T06:02:50.793Z,100943.58
2023-05-19T06:05:18.688Z,100944.25
2023-05-19T06:07:46.884Z,100940.91
2023-05-19T06:10:17.398Z,100941.79
2023-05-19T06:12:44.443Z,100939.86
2023-05-19T06:15:11.479Z,100942.73
2023-05-19T06:17:48.468Z,100945.20
2023-05-19T06:20:16.434Z,100945.11
2023-05-19T06:22:43.524Z,100948.95
2023-05-19T06:25:10.819Z,100949.19
2023-05-19T06:27:37.578Z,100950.98
2023-05-19T06:30:04.953Z,100950.58
2023-05-19T06:32:35.615Z,100953.41
2023-05-19T06:35:02.523Z,100956.19
2023-05-19T06:37:29.551Z,100953.13
2023-05-19T06:39:57.243Z,100953.17
2023-05-19T06:42:25.465Z,100954.02
2023-05-19T06:45:07.534Z,100951.67
2023-05-19T06:47:34.378Z,100952.80
2023-05-19T06:50:01.657Z,100956.54
2023-05-19T06:52:30.946Z,100956.48
2023-05-19T06:54:58.189Z,100952.48
2023-05-19T06:57:25.018Z,100957.73
2023-05-19T06:59:51.799Z,100957.23
2023-05-19T07:02:18.870Z,100960.30
2023-05-19T07:04:46.062Z,100961.04
2023-05-19T07:07:13.819Z,100966.67
2023-05-19T07:09:40.770Z,100963.15
2023-05-19T07:12:08.246Z,100964.25
2023-05-19T07:14:36.684Z,100966.63
2023-05-19T07:17:03.549Z,100958.55
2023-05-19T07:19:31.415Z,100955.02
2023-05-19T07:21:59.501Z,100959.35
2023-05-19T07:24:27.662Z,100956.63
2023-05-19T07:26:54.414Z,100965.40
2023-05-19T07:29:21.152Z,100967.78
2023-05-19T07:31:48.392Z,100975.79
2023-05-19T07:34:15.368Z,100976.50
2023-05-19T07:36:42.219Z,100969.58
2023-05-19T07:39:09.109Z,100971.23
2023-05-19T07:41:36.549Z,100971.12
2023-05-19T07:44:07.910Z,100969.92
2023-05-19T07:46:35.660Z,100968.23
2023-05-19T07:49:02.523Z,100968.89
2023-05-19T07:51:29.399Z,100967.76
2023-05-19T07:53:57.450Z,100965.40
2023-05-19T07:56:25.023Z,100961.33
2023-05-19T07:58:51.955Z,100963.38
2023-05-19T08:01:18.680Z,100963.11
2023-05-19T08:03:45.472Z,100961.48
2023-05-19T08:06:12.281Z,100962.86
2023-05-19T08:08:39.504Z,100961.84
2023-05-19T08:11:06.782Z,100960.65
2023-05-19T08:13:34.798Z,100960.27
2023-05-19T08:16:01.704Z,100957.60
2023-05-19T08:18:28.776Z,100956.23
2023-05-19T08:20:55.891Z,100960.33
2023-05-19T08:23:23.094Z,100959.00
2023-05-19T08:25:49.777Z,100958.85
2023-05-19T08:28:17.206Z,100963.17
2023-05-19T08:30:43.987Z,100964.95
2023-05-19T08:33:10.788Z,100965.41
2023-05-19T08:35:38.161Z,100968.13
2023-05-19T08:38:04.894Z,100967.45
2023-05-19T08:40:34.744Z,100963.60
2023-05-19T08:43:03.817Z,100961.92
2023-05-19T08:45:31.610Z,100960.45
2023-05-19T08:47:58.549Z,100967.86
2023-05-19T08:50:30.850Z,100966.55
2023-05-19T08:56:10.745Z,100975.63
2023-05-19T08:58:44.124Z,100975.58
2023-05-19T09:01:15.199Z,100973.51
2023-05-19T09:03:43.356Z,100971.23
2023-05-19T09:06:14.248Z,100972.13
2023-05-19T09:08:42.435Z,100972.75
2023-05-19T09:11:10.881Z,100971.85
2023-05-19T09:13:38.420Z,100973.87
2023-05-19T09:16:05.628Z,100972.14
2023-05-19T09:18:32.508Z,100978.70
2023-05-19T09:21:03.137Z,100980.98
2023-05-19T09:23:33.635Z,100976.73
2023-05-19T09:26:07.428Z,100968.33
2023-05-19T09:28:36.908Z,100965.90
2023-05-19T09:31:11.301Z,100964.15
2023-05-19T09:33:41.011Z,100963.68
2023-05-19T09:36:10.943Z,100962.24
2023-05-19T09:38:39.353Z,100961.05
2023-05-19T09:41:07.956Z,100965.03
2023-05-19T09:43:35.479Z,100964.20
2023-05-19T09:46:07.299Z,100961.88
2023-05-19T09:48:37.895Z,100963.19
2023-05-19T09:51:08.138Z,100969.25
2023-05-19T09:53:35.543Z,100965.64
2023-05-19T09:56:04.265Z,100965.44
2023-05-19T09:58:35.365Z,100967.23
2023-05-19T10:01:03.849Z,100977.20
2023-05-19T10:03:33.118Z,100969.67
2023-05-19T10:06:01.644Z,100964.67
2023-05-19T10:08:30.753Z,100973.23
2023-05-19T10:10:58.496Z,100961.86
2023-05-19T10:13:26.005Z,100961.18
2023-05-19T10:15:59.032Z,100956.38
2023-05-19T10:18:29.480Z,100961.33
2023-05-19T10:20:57.997Z,100960.45
2023-05-19T10:23:25.649Z,100964.08
2023-05-19T10:25:56.675Z,100964.41
2023-05-19T10:28:28.157Z,100968.60
2023-05-19T10:31:01.527Z,100963.92
2023-05-19T10:33:39.544Z,100959.98
2023-05-19T10:36:25.872Z,100950.80
2023-05-19T10:39:22.344Z,100954.65
2023-05-19T10:42:17.134Z,100952.58
2023-05-19T10:45:13.230Z,100959.00
2023-05-19T10:47:44.289Z,100956.83
2023-05-19T10:50:11.806Z,100960.32
2023-05-19T10:52:39.818Z,100954.78
2023-05-19T10:55:17.776Z,100951.29
2023-05-19T10:57:57.058Z,100955.45
2023-05-19T11:00:28.814Z,100952.34
2023-05-19T11:03:15.680Z,100952.09
2023-05-19T11:05:45.602Z,100958.47
2023-05-19T11:08:13.457Z,100958.02
2023-05-19T11:10:44.733Z,100964.19
2023-05-19T11:13:20.009Z,100971.69
2023-05-19T11:15:46.965Z,100962.70
2023-05-19T11:18:17.705Z,100960.44
2023-05-19T11:20:55.543Z,100970.11
2023-05-19T11:23:26.076Z,100964.77
2023-05-19T11:25:55.883Z,100971.25
2023-05-19T11:28:28.275Z,100971.55
2023-05-19T11:30:57.953Z,100968.78
2023-05-19T11:33:27.919Z,100970.36
2023-05-19T11:35:58.623Z,100969.91
2023-05-19T11:38:26.631Z,100969.38
2023-05-19T11:40:54.527Z,100971.89
2023-05-19T11:43:26.199Z,100972.70
2023-05-19T11:45:56.587Z,100973.34
2023-05-19T11:48:25.037Z,100976.39
2023-05-19T11:50:52.612Z,100978.20
2023-05-19T11:53:20.141Z,100981.80
2023-05-19T11:55:48.987Z,100982.77
2023-05-19T11:58:16.824Z,100979.32
2023-05-19T12:00:47.698Z,100984.92
2023-05-19T12:03:15.112Z,100996.98
2023-05-19T12:05:52.810Z,100992.88
2023-05-19T12:08:21.744Z,100993.25
2023-05-19T12:10:52.039Z,100984.27
2023-05-19T12:13:19.557Z,100981.30
2023-05-19T12:15:46.388Z,100982.59
2023-05-19T12:18:13.224Z,100979.27
2023-05-19T12:20:40.337Z,100977.90
2023-05-19T12:23:07.842Z,100978.07
2023-05-19T12:25:35.192Z,100974.92
2023-05-19T12:28:06.071Z,100974.44
2023-05-19T12:30:34.773Z,100973.45
2023-05-19T12:33:03.319Z,100975.66
2023-05-19T12:35:34.058Z,100962.63
2023-05-19T12:38:05.550Z,100984.08
2023-05-19T12:40:35.076Z,100972.40
2023-05-19T12:43:02.614Z,100976.87
2023-05-19T12:45:37.282Z,100974.46
2023-05-19T12:48:06.918Z,100975.70
2023-05-19T12:50:34.773Z,100971.77
2023-05-19T12:53:02.442Z,100959.13
2023-05-19T12:55:29.895Z,100958.75
2023-05-19T12:57:58.543Z,100971.87
2023-05-19T13:00:28.716Z,100969.57
2023-05-19T13:03:05.134Z,100969.36
2023-05-19T13:05:37.895Z,100970.02
2023-05-19T13:08:09.292Z,100969.14
2023-05-19T13:10:37.800Z,100964.55
2023-05-19T13:13:05.600Z,100964.05
2023-05-19T13:15:34.637Z,100965.70
2023-05-19T13:18:03.616Z,100970.73
2023-05-19T13:20:30.662Z,100962.79
2023-05-19T13:22:57.661Z,100961.70
2023-05-19T13:25:24.995Z,100964.02
2023-05-19T13:27:51.944Z,100961.34
2023-05-19T13:30:22.693Z,100961.09
2023-05-19T13:32:49.890Z,100958.38
2023-05-19T13:35:16.740Z,100955.52
2023-05-19T13:37:43.692Z,100945.17
2023-05-19T13:40:11.254Z,100937.06
2023-05-19T13:42:38.176Z,100938.11
2023-05-19T13:45:05.553Z,100941.16
2023-05-19T13:47:32.575Z,100945.13
2023-05-19T13:49:59.415Z,100942.42
2023-05-19T13:52:28.951Z,100942.23
2023-05-19T13:54:57.536Z,100943.95
2023-05-19T13:57:26.448Z,100939.56
2023-05-19T14:00:01.972Z,100930.31
2023-05-19T14:02:39.941Z,100937.70
2023-05-19T14:05:08.245Z,100942.83
2023-05-19T14:07:35.498Z,100941.55
2023-05-19T14:10:05.482Z,100940.04
2023-05-19T14:12:41.566Z,100934.31
2023-05-19T14:15:19.699Z,100942.31
2023-05-19T14:17:46.523Z,100940.70
2023-05-19T14:20:13.359Z,100942.17
2023-05-19T14:22:40.544Z,100943.45
2023-05-19T14:25:07.810Z,100943.06
2023-05-19T14:27:34.551Z,100928.02
2023-05-19T14:30:01.470Z,100940.61
2023-05-19T14:32:30.239Z,100933.52
2023-05-19T14:34:58.139Z,100933.30
2023-05-19T14:37:28.914Z,100940.61
2023-05-19T14:39:57.544Z,100946.07
2023-05-19T14:42:25.047Z,100943.48
2023-05-19T14:44:51.816Z,100946.33
2023-05-19T14:47:18.479Z,100952.29
2023-05-19T14:49:45.177Z,100946.95
2023-05-19T14:52:11.948Z,100944.67
2023-05-19T14:54:39.165Z,100944.55
2023-05-19T14:57:07.708Z,100942.09
2023-05-19T14:59:37.834Z,100945.80
2023-05-19T15:02:05.417Z,100950.78
2023-05-19T15:04:32.180Z,100947.36
2023-05-19T15:09:32.447Z,100950.97
2023-05-19T15:12:01.251Z,100947.86
2023-05-19T15:14:30.106Z,100946.43
2023-05-19T15:16:57.797Z,100943.34
2023-05-19T15:19:26.398Z,100938.45
2023-05-19T15:21:53.324Z,100937.29
2023-05-19T15:24:20.189Z,100938.20
2023-05-19T15:26:47.587Z,100938.30
2023-05-19T15:29:14.387Z,100935.40
2023-05-19T15:31:41.478Z,100933.34
2023-05-19T15:34:08.613Z,100936.17
2023-05-19T15:36:35.615Z,100938.50
2023-05-19T15:39:03.745Z,100938.55
2023-05-19T15:41:30.757Z,100939.14
2023-05-19T15:44:00.203Z,100941.48
2023-05-19T15:46:27.444Z,100937.56
2023-05-19T15:48:54.818Z,100935.09
2023-05-19T15:51:21.728Z,100940.30
2023-05-19T15:53:48.584Z,100936.53
2023-05-19T15:56:15.456Z,100934.42
2023-05-19T15:58:42.312Z,100927.55
2023-05-19T16:01:09.117Z,100927.39
2023-05-19T16:03:36.154Z,100941.21
2023-05-19T16:06:03.653Z,100942.45
2023-05-19T16:08:30.515Z,100943.69
2023-05-19T16:10:57.401Z,100945.27
2023-05-19T16:13:24.858Z,100948.83
2023-05-19T16:15:52.594Z,100950.95
2023-05-19T16:18:19.749Z,100953.48
2023-05-19T16:20:46.498Z,100955.28
2023-05-19T16:23:13.253Z,100956.20
2023-05-19T16:25:40.047Z,100953.90
2023-05-19T16:28:06.958Z,100955.09
2023-05-19T16:30:34.610Z,100954.81
2023-05-19T16:33:01.811Z,100960.87
2023-05-19T16:35:29.695Z,100960.74
2023-05-19T16:37:57.993Z,100968.69
2023-05-19T16:40:24.874Z,100969.64
2023-05-19T16:42:54.676Z,100972.37
2023-05-19T16:45:21.475Z,100979.18
2023-05-19T16:47:48.372Z,100977.37
2023-05-19T16:50:15.288Z,100981.25
2023-05-19T16:52:44.308Z,100984.88
2023-05-19T16:55:11.191Z,100990.61
2023-05-19T16:57:38.431Z,100994.91
2023-05-19T17:00:05.799Z,100995.61
2023-05-19T17:02:32.801Z,100996.84
2023-05-19T17:04:59.739Z,101003.30
2023-05-19T17:07:29.106Z,101003.68
2023-05-19T17:09:56.234Z,101000.05
2023-05-19T17:12:23.276Z,100997.74
2023-05-19T17:14:52.266Z,101001.91
2023-05-19T17:17:19.469Z,101007.20
2023-05-19T17:19:46.918Z,101008.12
2023-05-19T17:22:13.763Z,101007.25
2023-05-19T17:24:41.280Z,101008.77
2023-05-19T17:27:08.066Z,101008.11
2023-05-19T17:29:34.911Z,101005.41
2023-05-19T17:32:04.189Z,101010.67
2023-05-19T17:34:30.956Z,101014.13
2023-05-19T17:36:57.802Z,101012.75
2023-05-19T17:39:24.807Z,101016.14
2023-05-19T17:41:52.598Z,101013.96
2023-05-19T17:45:16.150Z,101015.91
2023-05-19T17:47:47.399Z,101015.27
2023-05-19T17:50:23.492Z,101018.91
2023-05-19T17:52:54.879Z,101028.51
2023-05-19T17:56:03.097Z,101025.48
2023-05-19T17:58:36.563Z,101025.79
2023-05-19T18:01:03.530Z,101030.16
2023-05-19T18:03:31.882Z,101034.80
2023-05-19T18:06:02.736Z,101038.52
2023-05-19T18:08:32.959Z,101038.07
2023-05-19T18:11:00.823Z,101037.11
2023-05-19T18:13:28.096Z,101038.23
2023-05-19T18:15:57.054Z,101035.85
2023-05-19T18:18:25.048Z,101039.88
2023-05-19T18:20:52.213Z,101043.14
2023-05-19T18:23:20.590Z,101042.67
2023-05-19T18:25:53.292Z,101046.10
2023-05-19T18:28:20.260Z,101047.38
2023-05-19T18:30:47.164Z,101045.22
2023-05-19T18:33:14.676Z,101044.08
2023-05-19T18:35:42.926Z,101046.56
2023-05-19T18:38:09.722Z,101053.08
2023-05-19T18:40:39.644Z,101053.77
2023-05-19T18:43:06.638Z,101052.11
2023-05-19T18:45:33.437Z,101051.58
2023-05-19T18:48:00.312Z,101055.79
2023-05-19T18:50:27.586Z,101058.77
2023-05-19T18:52:54.360Z,101058.27
2023-05-19T18:55:21.087Z,101054.83
2023-05-19T18:57:47.859Z,101054.16
2023-05-19T19:00:15.016Z,101053.63
2023-05-19T19:02:41.833Z,101052.14
2023-05-19T19:05:11.496Z,101056.59
2023-05-19T19:07:43.083Z,101052.15
2023-05-19T19:10:10.107Z,101050.88
2023-05-19T19:12:37.140Z,101050.77
2023-05-19T19:15:04.491Z,101057.36
2023-05-19T19:17:31.479Z,101059.16
2023-05-19T19:19:58.302Z,101063.38
2023-05-19T19:22:25.185Z,101066.48
2023-05-19T19:24:51.946Z,101064.54
2023-05-19T19:27:20.871Z,101068.41
2023-05-19T19:29:47.653Z,101070.27
2023-05-19T19:32:14.481Z,101069.59
2023-05-19T19:34:41.375Z,101068.64
2023-05-19T19:37:08.205Z,101065.06
2023-05-19T19:39:34.958Z,101066.14
2023-05-19T19:42:01.700Z,101066.95
2023-05-19T19:44:28.451Z,101066.34
2023-05-19T19:46:55.355Z,101069.54
2023-05-19T19:49:22.130Z,101066.25
2023-05-19T19:51:48.876Z,101068.52
2023-05-19T19:54:15.608Z,101070.41
2023-05-19T19:56:42.325Z,101071.90
2023-05-19T19:59:09.086Z,101073.05
2023-05-19T20:01:35.887Z,101072.86
2023-05-19T20:04:04.228Z,101073.05
2023-05-19T20:06:32.281Z,101071.67
2023-05-19T20:08:59.485Z,101070.34
2023-05-19T20:11:26.864Z,101067.94
2023-05-19T20:13:53.594Z,101069.87
2023-05-19T20:16:20.453Z,101065.95
2023-05-19T20:18:47.179Z,101068.70
2023-05-19T20:21:13.958Z,101068.96
2023-05-19T20:23:40.820Z,101069.85
2023-05-19T20:26:12.775Z,101068.23
2023-05-19T20:28:40.532Z,101069.00
2023-05-19T20:31:07.592Z,101070.67
2023-05-19T20:33:34.676Z,101070.33
2023-05-19T20:36:01.456Z,101070.02
2023-05-19T20:38:28.241Z,101072.00
2023-05-19T20:43:58.146Z,101072.18
2023-05-19T20:46:24.979Z,101078.35
2023-05-19T20:48:52.072Z,101076.71
2023-05-19T20:51:19.283Z,101077.96
2023-05-19T20:53:46.059Z,101076.86
2023-05-19T20:56:13.163Z,101081.26
2023-05-19T20:58:40.059Z,101081.30
2023-05-19T21:01:06.909Z,101080.35
2023-05-19T21:03:33.767Z,101085.11
2023-05-19T21:06:00.968Z,101081.50
2023-05-19T21:08:27.806Z,101085.27
2023-05-19T21:10:54.582Z,101088.16
2023-05-19T21:13:21.420Z,101088.69
2023-05-19T21:15:49.083Z,101088.76
2023-05-19T21:18:16.128Z,101090.01
2023-05-19T21:20:42.904Z,101093.02
2023-05-19T21:23:09.651Z,101094.95
2023-05-19T21:25:36.490Z,101091.80
2023-05-19T21:28:03.558Z,101089.36
2023-05-19T21:30:30.504Z,101090.80
2023-05-19T21:32:57.383Z,101094.11
2023-05-19T21:35:24.344Z,101093.50
2023-05-19T21:37:51.154Z,101092.07
2023-05-19T21:40:17.927Z,101096.02
2023-05-19T21:42:44.672Z,101094.06
2023-05-19T21:45:11.695Z,101091.88
2023-05-19T21:47:38.606Z,101096.98
2023-05-19T21:50:06.349Z,101097.66
2023-05-19T21:52:33.396Z,101102.59
2023-05-19T21:55:00.240Z,101098.38
2023-05-19T21:57:26.981Z,101099.78
2023-05-19T21:59:53.770Z,101086.66
2023-05-19T22:02:21.177Z,101103.40
2023-05-19T22:04:48.186Z,101102.05
2023-05-19T22:07:15.040Z,101103.93
2023-05-19T22:09:41.840Z,101105.75
2023-05-19T22:12:08.643Z,101106.86
2023-05-19T22:14:35.914Z,101109.05
2023-05-19T22:17:02.743Z,101109.73
2023-05-19T22:19:29.711Z,101106.39
2023-05-19T22:22:09.858Z,101103.16
2023-05-19T22:24:39.797Z,101106.14
2023-05-19T22:27:09.873Z,101103.66
2023-05-19T22:29:38.559Z,101102.10
2023-05-19T22:32:07.703Z,101101.39
2023-05-19T22:34:34.576Z,101103.34
2023-05-19T22:37:01.919Z,101105.51
2023-05-19T22:39:28.682Z,101107.77
2023-05-19T22:41:55.547Z,101106.25
2023-05-19T22:44:22.297Z,101102.88
2023-05-19T22:46:49.009Z,101105.38
2023-05-19T22:49:16.016Z,101107.20
2023-05-19T22:51:42.852Z,101106.66
2023-05-19T22:54:10.524Z,101104.23
2023-05-19T22:56:37.323Z,101103.45
2023-05-19T22:59:04.042Z,101101.11
2023-05-19T23:01:31.241Z,101105.92
2023-05-19T23:03:58.042Z,101108.66
2023-05-19T23:06:24.860Z,101110.27
2023-05-19T23:09:00.239Z,101112.15
2023-05-19T23:11:26.970Z,101112.80
2023-05-19T23:13:53.690Z,101109.63
2023-05-19T23:16:20.737Z,101107.05
2023-05-19T23:18:47.517Z,101108.27
2023-05-19T23:21:14.280Z,101107.30
2023-05-19T23:23:41.003Z,101106.03
2023-05-19T23:26:07.781Z,101104.82
2023-05-19T23:28:34.733Z,101101.92
2023-05-19T23:31:01.646Z,101104.80
2023-05-19T23:33:28.449Z,101105.16
2023-05-19T23:35:55.278Z,101106.05
2023-05-19T23:38:22.020Z,101105.93
2023-05-19T23:40:48.781Z,101102.73
2023-05-19T23:43:15.678Z,101106.60
2023-05-19T23:45:42.848Z,101103.20
2023-05-19T23:48:09.638Z,101103.41
2023-05-19T23:50:36.670Z,101103.36
2023-05-19T23:53:03.399Z,101102.19
2023-05-19T23:55:30.173Z,101102.98
2023-05-19T23:57:56.925Z,101099.35
